METAR Data
IDs: Format: Raw Decoded Include TAF

Data at: 2321 UTC 25 Oct 2021

KCPT 252315Z AUTO 15005KT 10SM CLR 29/20 A2991 RMK A01
KCPT 252255Z AUTO 14006KT 10SM CLR 30/20 A2990 RMK A01
KCPT 252235Z AUTO 14007KT 10SM CLR 30/20 A2991 RMK A01
KCPT 252215Z AUTO 13006KT 10SM CLR 31/19 A2991 RMK A01
KCPT 252155Z AUTO 14004KT 10SM CLR 31/19 A2991 RMK A01
KCPT 252135Z AUTO 18004KT 10SM CLR 31/19 A2991 RMK A01
KCPT 252115Z AUTO 15004KT 10SM CLR 31/19 A2992 RMK A01
KCPT 252055Z AUTO 11006KT 10SM CLR 31/19 A2992 RMK A01
KCPT 252035Z AUTO 00000KT 10SM CLR 30/19 A2992 RMK A01
KCPT 252015Z AUTO 15005KT 10SM CLR 30/19 A2992 RMK A01
KCPT 251955Z AUTO 00000KT 10SM CLR 30/19 A2993 RMK A01
KCPT 251935Z AUTO VRB04KT 10SM CLR 29/19 A2994 RMK A01
KCPT 251915Z AUTO VRB05KT 10SM CLR 29/19 A2994 RMK A01
KCPT 251855Z AUTO VRB04KT 10SM CLR 29/19 A2995 RMK A01
KCPT 251835Z AUTO 12005KT 10SM CLR 28/19 A2996 RMK A01
KCPT 251815Z AUTO VRB04KT 10SM CLR 28/20 A2997 RMK A01
KCPT 251755Z AUTO VRB04KT 10SM CLR 28/20 A2998 RMK A01
KCPT 251735Z AUTO VRB05KT 10SM CLR 27/19 A2999 RMK A01
KCPT 251715Z AUTO VRB05KT 10SM CLR 27/19 A2999 RMK A01
KCPT 251655Z AUTO 12006KT 10SM CLR 26/18 A3000 RMK A01
KCPT 251635Z AUTO 12007KT 10SM CLR 26/17 A3000 RMK A01
KCPT 251615Z AUTO 09008G13KT 10SM CLR 25/17 A3000 RMK A01
KCPT 251555Z AUTO 12007KT 10SM CLR 25/16 A3001 RMK A01
KCPT 251535Z AUTO 09008KT 10SM CLR 24/15 A3001 RMK A01
KCPT 251515Z AUTO 10009KT 10SM CLR 23/15 A3001 RMK A01
KCPT 251455Z AUTO 09009KT 10SM CLR 22/14 A3002 RMK A01
KCPT 251435Z AUTO 09010KT 10SM CLR 22/14 A3001 RMK A01
KCPT 251415Z AUTO 08008KT 10SM CLR 21/14 A3001 RMK A01
KCPT 251355Z AUTO 07006KT 10SM CLR 20/14 A3000 RMK A01
KCPT 251335Z AUTO 06005KT 10SM CLR 19/15 A2999 RMK A01
KCPT 251315Z AUTO 05005KT 10SM CLR 18/15 A2998 RMK A01
KCPT 251255Z AUTO 07005KT 10SM CLR 18/15 A2998 RMK A01
KCPT 251235Z AUTO 07004KT 10SM CLR 18/15 A2997 RMK A01
KCPT 251215Z AUTO 08006KT 10SM CLR 18/15 A2996 RMK A01
KCPT 251035Z AUTO 05008KT 10SM CLR 19/15 A2995 RMK A01
KCPT 251015Z AUTO 05009KT 10SM CLR 19/15 A2994 RMK A01
KCPT 250955Z AUTO 04008KT 10SM CLR 19/15 A2994 RMK A01
KCPT 250935Z AUTO 05007KT 10SM CLR 19/15 A2994 RMK A01
KCPT 250915Z AUTO 05007KT 10SM CLR 20/15 A2993 RMK A01
KCPT 250855Z AUTO 04009KT 10SM CLR 20/15 A2993 RMK A01
KCPT 250835Z AUTO 04008KT 10SM CLR 20/15 A2993 RMK A01
KCPT 250815Z AUTO 04007KT 10SM CLR 20/15 A2993 RMK A01
KCPT 250735Z AUTO 04007KT 10SM CLR 21/17 A2993 RMK A01
KCPT 250715Z AUTO 03007KT 10SM CLR 21/17 A2992 RMK A01
KCPT 250515Z AUTO 15005KT 10SM CLR 22/20 A2991 RMK A01
KCPT 250455Z AUTO 09003KT 10SM CLR 22/20 A2991 RMK A01
KCPT 250435Z AUTO 00000KT 10SM CLR 22/20 A2991 RMK A01
KCPT 250355Z AUTO 00000KT 10SM CLR 22/21 A2990 RMK A01
KCPT 250335Z AUTO 30004KT 10SM CLR 23/20 A2989 RMK A01
KCPT 250315Z AUTO 30004G10KT 10SM CLR 23/20 A2988 RMK A01
KCPT 250255Z AUTO 16006KT 10SM CLR 23/20 A2986 RMK A01
KCPT 250235Z AUTO 16007KT 10SM CLR 23/20 A2985 RMK A01
KCPT 250215Z AUTO 16008KT 10SM CLR 24/21 A2984 RMK A01
KCPT 250155Z AUTO 16009KT 10SM CLR 24/21 A2983 RMK A01
KCPT 250135Z AUTO 17009KT 10SM CLR 24/21 A2982 RMK A01
KCPT 250115Z AUTO 17008KT 10SM CLR 25/21 A2982 RMK A01
KCPT 250055Z AUTO 16008KT 10SM CLR 25/21 A2981 RMK A01
KCPT 250035Z AUTO 16008KT 10SM CLR 26/21 A2981 RMK A01
KCPT 250015Z AUTO 15007KT 10SM CLR 26/21 A2980 RMK A01
KCPT 242355Z AUTO 16009G14KT 10SM CLR 27/21 A2980 RMK A01
KCPT 242315Z AUTO 17008G14KT 10SM CLR 28/21 A2979 RMK A01
KCPT 242255Z AUTO 16012KT 10SM FEW060 28/21 A2979 RMK A01
KCPT 242235Z AUTO 16012KT 10SM CLR 28/21 A2979 RMK A01
KCPT 242215Z AUTO 17011KT 10SM CLR 29/21 A2979 RMK A01
KCPT 242155Z AUTO 17013KT 10SM CLR 29/21 A2979 RMK A01
KCPT 242135Z AUTO 16014KT 10SM CLR 29/21 A2978 RMK A01
KCPT 242115Z AUTO 17014G19KT 10SM CLR 29/21 A2978 RMK A01
KCPT 242055Z AUTO 16013G20KT 10SM CLR 29/21 A2978 RMK A01
KCPT 242035Z AUTO 18016G21KT 10SM CLR 29/21 A2978 RMK A01
KCPT 242015Z AUTO 18013G21KT 10SM FEW035 29/21 A2978 RMK A01
KCPT 241955Z AUTO 16015KT 10SM FEW035 SCT042 28/21 A2979 RMK A01
KCPT 241935Z AUTO 19012KT 10SM FEW031 BKN042 28/21 A2980 RMK A01
KCPT 241915Z AUTO 17015G20KT 10SM BKN029 BKN033 BKN041 27/21 A2981 RMK A01
KCPT 241855Z AUTO 17014G20KT 10SM FEW026 BKN032 BKN038 27/21 A2981 RMK A01
KCPT 241835Z AUTO 17015G21KT 10SM FEW025 SCT030 27/21 A2981 RMK A01
KCPT 241815Z AUTO 16012G21KT 10SM FEW024 FEW031 27/21 A2982 RMK A01
KCPT 241755Z AUTO 17014G20KT 10SM SCT021 SCT029 SCT035 27/21 A2982 RMK A01
KCPT 241735Z AUTO 18014G19KT 10SM BKN020 BKN028 OVC034 25/21 A2984 RMK A01
KCPT 241715Z AUTO 16015G21KT 10SM SCT018 BKN025 BKN036 26/21 A2985 RMK A01
KCPT 241655Z AUTO 17016KT 10SM BKN018 BKN025 BKN038 25/21 A2985 RMK A01
KCPT 241635Z AUTO 18016KT 10SM BKN016 OVC021 25/21 A2986 RMK A01
KCPT 241615Z AUTO 17016KT 10SM OVC013 24/21 A2987 RMK A01
KCPT 241555Z AUTO 17011G20KT 10SM OVC013 24/21 A2987 RMK A01
KCPT 241535Z AUTO 17017KT 10SM OVC012 23/21 A2986 RMK A01
KCPT 241515Z AUTO 18011G18KT 10SM OVC011 22/21 A2988 RMK A01
KCPT 241455Z AUTO 18015KT 10SM OVC011 22/21 A2988 RMK A01
KCPT 241435Z AUTO 17011G17KT 10SM SCT012 22/21 A2986 RMK A01
KCPT 241415Z AUTO 17010G16KT 10SM CLR 22/21 A2986 RMK A01
KCPT 241355Z AUTO 16010KT 10SM SCT032 SCT120 21/21 A2986 RMK A01
KCPT 241335Z AUTO 16008KT 10SM OVC029 21/21 A2987 RMK A01
KCPT 241315Z AUTO 15008KT 10SM BKN023 OVC027 21/21 A2985 RMK A01
KCPT 241255Z AUTO 19008KT 10SM OVC019 20/20 A2986 RMK A01
KCPT 241235Z AUTO 17009KT 10SM OVC016 20/20 A2985 RMK A01
KCPT 241215Z AUTO 19007KT 10SM OVC013 20/20 A2985 RMK A01
KCPT 241135Z AUTO 17010KT 10SM OVC012 20/20 A2984 RMK A01